Data for 08/08/2010

Time Sea-Level Adjusted Pressure Absolute Pressure Temperature Relative Humidity Dew Point   
(mb) (inHg) (mb) (inHg) (C) (F) (%) (C) (F)
00:05 1016 30 845 24.95 14.7 58.4 60 7.2 44.9
00:10 1016 30 845 24.95 14.2 57.6 61 6.8 44.2
00:15 1016 30 845 24.95 14.2 57.6 58 6 42.8
00:20 1016 30 845 24.95 14.5 58.1 56 5.9 42.7
00:25 1016 30 845 24.95 14.6 58.3 56 6 42.7
00:30 1016 30 845 24.95 14.6 58.3 57 6.3 43.4
00:35 1016 30 845 24.95 14.2 57.5 59 6.3 43.3
00:40 1016 30 845 24.95 14 57.1 59 6.3 43.3
00:45 1016 30 845 24.95 14 57.1 59 6 42.9
00:50 1016 30 845 24.95 14.1 57.3 57 5.8 42.4
00:55 1016 30 845 24.95 14.1 57.3 58 5.9 42.7
01:00 1016 30 845 24.95 13.9 57 59 6 42.8
01:05 1016 30 845 24.95 13.8 56.8 59 5.9 42.7
01:10 1016 30 845 24.95 13.7 56.6 59 6 42.8
01:15 1016 30 845 24.95 13.6 56.4 61 6.1 43
01:20 1016 30 845 24.95 13.2 55.7 63 6.4 43.5
01:25 1016 30 845 24.95 12.8 55.1 62 5.7 42.3
01:30 1015 29.97 845 24.95 13.3 55.9 60 5.6 42.2
01:35 1015 29.97 845 24.95 13.3 55.9 59 5.5 42
01:40 1015 29.97 845 24.95 13.4 56 61 6.1 42.9
01:45 1015 29.97 845 24.95 13.1 55.6 62 6 42.9
01:50 1015 29.97 845 24.95 12.9 55.3 62 6 42.7
01:55 1015 29.97 845 24.95 12.9 55.1 63 6 42.8
02:00 1015 29.97 845 24.95 12.9 55.1 62 5.8 42.4
02:05 1015 29.97 845 24.95 12.8 55 63 6 42.7
02:10 1015 29.97 845 24.95 13 55.4 59 5.1 41.2
02:15 1015 29.97 845 24.95 13.9 57 55 5.1 41.1
02:20 1015 29.97 845 24.95 14.2 57.6 55 5.4 41.8
02:25 1015 29.97 845 24.95 14.2 57.6 56 5.5 42
02:30 1015 29.97 844 24.92 13.9 57.1 58 6 42.7
02:35 1015 29.97 844 24.92 13.2 55.7 62 6.1 43
02:40 1015 29.97 844 24.92 12.7 54.8 64 6 42.8
02:45 1015 29.97 844 24.92 12.6 54.6 62 5.6 42.2
02:50 1015 29.97 844 24.92 12.9 55.3 61 5.7 42.2
02:55 1015 29.97 844 24.92 13.2 55.7 60 5.6 42
03:00 1015 29.97 844 24.92 13.3 55.9 59 5.5 42
03:05 1015 29.97 844 24.92 13.3 55.9 60 5.8 42.4
03:10 1015 29.97 844 24.92 12.9 55.2 62 5.8 42.4
03:15 1015 29.97 844 24.92 12.7 54.9 62 5.6 42.1
03:20 1015 29.97 844 24.92 12.7 54.8 63 5.8 42.5
03:25 1015 29.97 844 24.92 12.4 54.4 64 5.8 42.5
03:30 1015 29.97 844 24.92 12.4 54.3 64 5.8 42.4
03:35 1015 29.97 844 24.92 12.4 54.3 63 5.7 42.3
03:40 1015 29.97 845 24.95 12.4 54.4 63 5.6 42
03:45 1015 29.97 845 24.95 12.6 54.7 62 5.7 42.2
03:50 1015 29.97 845 24.95 12.5 54.6 63 5.7 42.2
03:55 1015 29.97 845 24.95 12.6 54.7 62 5.7 42.2
04:00 1015 29.97 845 24.95 12.6 54.6 63 5.8 42.4
04:05 1015 29.97 844 24.92 12.5 54.5 63 5.6 42.1
04:10 1015 29.97 845 24.95 12.8 55 62 5.7 42.3
04:15 1015 29.97 845 24.95 12.7 54.8 63 5.8 42.5
04:20 1015 29.97 845 24.95 12.5 54.6 64 5.9 42.6
04:25 1016 30 845 24.95 12.4 54.2 64 5.7 42.3
04:30 1016 30 845 24.95 12.6 54.6 62 5.6 42.1
04:35 1016 30 845 24.95 12.8 55.1 61 5.6 42
04:40 1016 30 845 24.95 13 55.4 61 5.7 42.2
04:45 1016 30 845 24.95 13.1 55.5 61 5.7 42.3
04:50 1016 30 845 24.95 13 55.5 61 5.8 42.4
04:55 1016 30 845 24.95 12.9 55.3 62 5.8 42.4
05:00 1016 30 845 24.95 12.9 55.2 62 5.9 42.6
05:05 1016 30 845 24.95 12.7 54.9 63 5.9 42.7
05:10 1016 30 845 24.95 12.5 54.6 63 5.7 42.3
05:15 1016 30 845 24.95 12.7 54.9 61 5.4 41.7
05:20 1016 30 845 24.95 12.9 55.1 60 5.4 41.8
05:25 1016 30 845 24.95 12.9 55.3 60 5.5 41.9
05:30 1016 30 845 24.95 12.9 55.3 60 5.5 41.8
05:35 1016 30 845 24.95 12.6 54.8 63 5.9 42.7
05:40 1016 30 845 24.95 12.1 53.9 64 5.6 42.1
05:45 1016 30 845 24.95 12.2 53.9 64 5.5 41.9
05:50 1016 30 845 24.95 12.1 53.7 65 5.6 42.2
05:55 1016 30 845 24.95 12.3 54.1 62 5.2 41.3
06:00 1016 30 845 24.95 12.5 54.5 61 5.2 41.3
06:05 1016 30 845 24.95 12.4 54.2 62 5.3 41.6
06:10 1016 30 845 24.95 12.1 53.8 63 5.3 41.5
06:15 1016 30 845 24.95 12 53.5 63 5.2 41.4
06:20 1016 30 845 24.95 12 53.6 62 5.1 41.2
06:25 1016 30 845 24.95 12.2 53.9 62 5.2 41.4
06:30 1016 30 845 24.95 12.1 53.8 62 5.2 41.4
06:35 1016 30 845 24.95 12 53.6 64 5.4 41.7
06:40 1016 30 845 24.95 11.8 53.2 65 5.5 41.9
06:45 1016 30 845 24.95 11.5 52.7 67 5.5 42
06:50 1016 30 845 24.95 11.3 52.3 67 5.5 41.9
06:55 1016 30 845 24.95 11.3 52.3 67 5.3 41.6
07:00 1016 30 845 24.95 11.7 53.1 63 5 41
07:05 1016 30 845 24.95 12.2 53.9 61 5 41.1
07:10 1016 30 845 24.95 12.5 54.4 61 5.1 41.2
07:15 1016 30 845 24.95 12.6 54.6 62 5.7 42.2
07:20 1016 30 846 24.98 12.6 54.7 62 5.4 41.8
07:25 1016 30 845 24.95 12.6 54.7 62 5.5 41.9
07:30 1016 30 845 24.95 12.8 55 60 5.3 41.6
07:35 1016 30 846 24.98 13.2 55.7 59 5.4 41.7
07:40 1016 30 846 24.98 13.8 56.9 57 5.5 41.9
07:45 1016 30 846 24.98 14 57.1 59 6.1 42.9
07:50 1017 30.03 846 24.98 14 57.1 58 5.9 42.6
07:55 1017 30.03 846 24.98 14.5 58 57 6.1 42.9
08:00 1017 30.03 846 24.98 15.2 59.3 54 6.1 43
08:05 1017 30.03 846 24.98 15.6 60.1 54 6.3 43.3
08:10 1017 30.03 846 24.98 16.1 61 52 6.4 43.5
08:15 1017 30.03 846 24.98 16.5 61.7 51 6.4 43.6
08:20 1017 30.03 846 24.98 17.2 62.9 49 6.4 43.5
08:25 1017 30.03 846 24.98 17.6 63.7 48 6.7 44.1
08:30 1017 30.03 846 24.98 17.2 63 49 6.7 44
08:35 1017 30.03 846 24.98 17.1 62.7 51 6.8 44.3
08:40 1017 30.03 846 24.98 16.8 62.2 51 6.7 44
08:45 1017 30.03 846 24.98 17.1 62.8 51 6.9 44.4
08:50 1017 30.03 846 24.98 16.6 61.8 52 6.7 44.1
08:55 1017 30.03 846 24.98 17.1 62.7 51 6.9 44.4
09:00 1017 30.03 846 24.98 17 62.6 51 6.9 44.5
09:05 1017 30.03 846 24.98 17.5 63.4 49 6.8 44.3
09:10 1017 30.03 846 24.98 18 64.4 49 7.1 44.8
09:15 1017 30.03 846 24.98 18.1 64.5 47 6.8 44.3
09:20 1017 30.03 846 24.98 18.2 64.8 46 6.7 44
09:25 1017 30.03 846 24.98 18.2 64.7 46 6.6 44
09:30 1017 30.03 846 24.98 18.9 66 45 6.8 44.2
09:35 1017 30.03 846 24.98 19 66.2 45 7 44.7
09:40 1017 30.03 846 24.98 18.9 66 43 6.2 43.2
09:45 1017 30.03 846 24.98 19.3 66.7 44 6.8 44.3
09:50 1017 30.03 846 24.98 19.2 66.5 44 6.6 43.9
09:55 1017 30.03 846 24.98 19.4 66.8 43 6.6 43.9
10:00 1017 30.03 846 24.98 20 68 42 6.8 44.3
10:05 1017 30.03 846 24.98 20.4 68.7 40 6.5 43.7
10:10 1017 30.03 846 24.98 20.6 69 40 6.5 43.7
10:15 1017 30.03 846 24.98 21 69.9 38 6.3 43.3
10:20 1017 30.03 846 24.98 21 69.9 39 6.7 44
10:25 1017 30.03 846 24.98 21.8 71.3 37 6.7 44
10:30 1017 30.03 846 24.98 21.7 71 37 6.6 43.8
10:35 1017 30.03 846 24.98 20.9 69.5 38 6.1 42.9
10:40 1017 30.03 846 24.98 21.3 70.3 37 6.2 43.2
10:45 1017 30.03 846 24.98 21.6 71 37 6.5 43.6
10:50 1017 30.03 846 24.98 21.6 70.9 35 5.9 42.6
10:55 1017 30.03 846 24.98 21.7 71 36 6.1 43
11:00 1017 30.03 846 24.98 22.8 73.1 33 6 42.8
11:05 1017 30.03 846 24.98 22.9 73.2 34 6.6 43.8
11:10 1017 30.03 846 24.98 22.8 73.1 33 5.9 42.6
11:15 1017 30.03 846 24.98 23.5 74.2 33 6.7 44
11:20 1017 30.03 846 24.98 22.9 73.1 34 6.3 43.3
11:25 1017 30.03 846 24.98 22.4 72.4 33 5.8 42.4
11:30 1017 30.03 846 24.98 22.5 72.4 34 6.2 43.1
11:35 1017 30.03 846 24.98 23 73.4 33 5.9 42.6
11:40 1017 30.03 846 24.98 22.7 72.9 37 7.5 45.5
11:45 1017 30.03 846 24.98 22.7 72.8 34 6.3 43.4
11:50 1017 30.03 846 24.98 22.1 71.7 34 5.9 42.6
11:55 1017 30.03 846 24.98 22.8 73.1 35 6.8 44.2
12:00 1017 30.03 846 24.98 22.8 73 34 6.2 43.2
12:05 1017 30.03 846 24.98 24 75.1 32 6.3 43.3
12:10 1016 30 846 24.98 24.8 76.6 31 7 44.6
12:15 1016 30 846 24.98 24.5 76.2 32 7.2 45
12:20 1016 30 846 24.98 23.8 74.8 33 6.9 44.3
12:25 1016 30 846 24.98 23.7 74.6 31 5.8 42.5
12:30 1016 30 846 24.98 24.5 76.2 31 6.6 43.9
12:35 1016 30 845 24.95 25.1 77.2 31 6.8 44.3
12:40 1016 30 845 24.95 25.3 77.6 28 5.8 42.5
12:45 1016 30 845 24.95 26.1 79 28 6.7 44
12:50 1016 30 845 24.95 26.2 79.2 27 6.1 42.9
12:55 1016 30 845 24.95 26.5 79.8 26 6 42.7
13:00 1016 30 845 24.95 25.4 77.7 29 6.3 43.3
13:05 1016 30 845 24.95 26.1 78.9 27 6 42.8
13:10 1016 30 845 24.95 26.1 78.9 28 6.2 43.2
13:15 1016 30 845 24.95 25.4 77.8 28 5.7 42.3
13:20 1016 30 845 24.95 27.1 80.7 26 6 42.7
13:25 1016 30 845 24.95 27.3 81.1 24 5.2 41.4
13:30 1016 30 845 24.95 26.4 79.4 22 3.4 38.1
13:35 1016 30 845 24.95 27.1 80.8 21 3.4 38.1
13:40 1016 30 845 24.95 27.8 82 21 4 39.1
13:45 1015 29.97 845 24.95 27.8 82 22 4.2 39.5
13:50 1015 29.97 845 24.95 27.5 81.5 20 2.6 36.7
13:55 1015 29.97 844 24.92 27.8 82.1 21 3.5 38.4
14:00 1015 29.97 844 24.92 27.9 82.1 20 3.2 37.7
14:05 1015 29.97 844 24.92 28.1 82.5 20 3.2 37.7
14:10 1015 29.97 844 24.92 28 82.3 21 4.1 39.4
14:15 1015 29.97 844 24.92 28.1 82.6 20 3 37.5
14:20 1015 29.97 844 24.92 28.3 82.9 19 2.6 36.8
14:25 1015 29.97 844 24.92 28.3 83 18 2.2 35.9
14:30 1015 29.97 844 24.92 28.1 82.6 19 2.9 37.2
14:35 1015 29.97 844 24.92 28.4 83 19 2.9 37.2
14:40 1015 29.97 844 24.92 28.9 84 18 2.4 36.4
14:45 1015 29.97 844 24.92 29 84.3 17 1.8 35.2
14:50 1015 29.97 844 24.92 29.1 84.4 17 1.6 34.9
14:55 1015 29.97 844 24.92 29.1 84.4 16 0.7 33.2
15:00 1015 29.97 844 24.92 28.8 83.9 16 0.9 33.6
15:05 1014 29.94 844 24.92 28.5 83.2 17 1.4 34.6
15:10 1014 29.94 844 24.92 28.8 83.9 16 0.6 33
15:15 1014 29.94 843 24.89 29.1 84.4 16 1 33.8
15:20 1014 29.94 843 24.89 28.8 83.8 18 2.3 36.1
15:25 1014 29.94 843 24.89 29.1 84.3 16 1.1 33.9
15:30 1014 29.94 843 24.89 29.1 84.4 17 1.9 35.5
15:35 1014 29.94 843 24.89 29.6 85.2 15 0.4 32.8
15:40 1014 29.94 843 24.89 29.5 85.1 16 1.2 34.1
15:45 1014 29.94 843 24.89 28.9 84.1 18 2.4 36.3
15:50 1014 29.94 843 24.89 28.8 83.9 18 2.6 36.6
15:55 1014 29.94 843 24.89 28.5 83.3 18 2.4 36.3
16:00 1014 29.94 843 24.89 28.5 83.2 17 1.6 34.9
16:05 1014 29.94 843 24.89 28.1 82.5 19 2.6 36.6
16:10 1014 29.94 843 24.89 27.9 82.1 19 2.6 36.6
16:15 1014 29.94 843 24.89 27.5 81.6 19 2 35.7
16:20 1014 29.94 843 24.89 27.5 81.5 19 2 35.7
16:25 1014 29.94 843 24.89 27.2 81 20 2.5 36.5
16:30 1014 29.94 844 24.92 27 80.6 20 2.2 36
16:35 1015 29.97 844 24.92 27.1 80.7 20 2.3 36.1
16:40 1015 29.97 844 24.92 27 80.6 21 3.2 37.7
16:45 1016 30 845 24.95 23.4 74.1 40 9.3 48.8
16:50 1016 30 846 24.98 19.5 67.1 47 8.1 46.5
16:55 1017 30.03 846 24.98 18.1 64.5 57 9.4 49
17:00 1017 30.03 846 24.98 16.8 62.2 59 8.8 47.9
17:05 1017 30.03 847 25.01 16.4 61.5 60 8.7 47.6
17:10 1018 30.06 847 25.01 16 60.7 66 9.7 49.4
17:15 1018 30.06 847 25.01 15.3 59.5 70 9.8 49.7
17:20 1018 30.06 847 25.01 14.7 58.5 74 10.1 50.2
17:25 1018 30.06 848 25.04 14.3 57.8 75 10 50
17:30 1019 30.09 848 25.04 14 57.2 79 10.5 50.8
17:35 1019 30.09 848 25.04 13.7 56.7 79 10.1 50.3
17:40 1019 30.09 848 25.04 13.8 56.8 79 10.2 50.3
17:45 1019 30.09 848 25.04 13.9 57 78 10.1 50.1
17:50 1019 30.09 848 25.04 14 57.3 77 10.1 50.2
17:55 1019 30.09 848 25.04 14.2 57.6 72 9.3 48.7
18:00 1019 30.09 848 25.04 14.3 57.7 77 10.4 50.7
18:05 1018 30.06 848 25.04 14.1 57.3 77 10.1 50.1
18:10 1018 30.06 847 25.01 14 57.2 77 10 50
18:15 1018 30.06 847 25.01 14.2 57.6 77 10.3 50.6
18:20 1018 30.06 847 25.01 14.4 57.8 75 9.9 49.9
18:25 1018 30.06 847 25.01 14.4 57.8 76 10.3 50.6
18:30 1018 30.06 847 25.01 14.5 58.1 75 10.1 50.3
18:35 1018 30.06 847 25.01 14.7 58.4 75 10.2 50.4
18:40 1018 30.06 847 25.01 14.6 58.2 77 10.6 51.2
18:45 1018 30.06 847 25.01 14.5 58.1 76 10.3 50.5
18:50 1018 30.06 847 25.01 14.5 58.1 76 10.3 50.6
18:55 1018 30.06 847 25.01 14.5 58 76 10.4 50.6
19:00 1018 30.06 847 25.01 14.4 57.9 77 10.5 50.9
19:05 1018 30.06 847 25.01 14.4 57.9 77 10.4 50.6
19:10 1017 30.03 847 25.01 14.3 57.7 76 10.1 50.2
19:15 1017 30.03 846 24.98 14.3 57.8 75 10 49.9
19:20 1017 30.03 846 24.98 14.4 57.9 74 9.8 49.7
19:25 1017 30.03 846 24.98 14.4 57.9 73 9.8 49.6
19:30 1017 30.03 846 24.98 14.7 58.4 70 9.2 48.6
19:35 1017 30.03 846 24.98 14.8 58.7 71 9.7 49.4
19:40 1017 30.03 846 24.98 14.6 58.4 73 9.9 49.9
19:45 1017 30.03 846 24.98 14.7 58.4 72 9.6 49.3
19:50 1017 30.03 846 24.98 14.8 58.7 70 9.6 49.2
19:55 1017 30.03 846 24.98 15 59.1 68 9.3 48.7
20:00 1017 30.03 846 24.98 15.2 59.4 68 9.4 48.9
20:05 1017 30.03 846 24.98 15.2 59.4 67 9.3 48.7
20:10 1017 30.03 846 24.98 15.2 59.4 68 9.5 49.1
20:15 1017 30.03 846 24.98 15.1 59.2 68 9.4 49
20:20 1017 30.03 846 24.98 15.1 59.2 69 9.5 49.1
20:25 1017 30.03 846 24.98 15.1 59.1 68 9.2 48.6
20:30 1017 30.03 846 24.98 15.2 59.3 67 9.2 48.6
20:35 1017 30.03 846 24.98 15.2 59.4 67 9.1 48.5
20:40 1017 30.03 846 24.98 15.2 59.3 68 9.3 48.7
20:45 1017 30.03 846 24.98 15.2 59.3 68 9.3 48.8
20:50 1017 30.03 846 24.98 15.2 59.4 66 8.9 48.1
20:55 1017 30.03 846 24.98 15.4 59.6 65 8.9 48.1
21:00 1017 30.03 846 24.98 15.4 59.6 65 9 48.2
21:05 1017 30.03 846 24.98 15.3 59.5 66 9 48.2
21:10 1017 30.03 846 24.98 15.2 59.3 68 9.4 48.9
21:15 1017 30.03 846 24.98 14.9 58.8 71 9.7 49.5
21:20 1017 30.03 846 24.98 14.6 58.3 73 9.8 49.7
21:25 1017 30.03 846 24.98 14.5 58.1 71 9.4 49
21:30 1017 30.03 846 24.98 14.5 58.2 72 9.5 49.2
21:35 1017 30.03 846 24.98 14.5 58 72 9.5 49.1
21:40 1017 30.03 846 24.98 14.4 58 72 9.4 48.9
21:45 1017 30.03 846 24.98 14.4 57.9 72 9.4 48.9
21:50 1017 30.03 846 24.98 14.4 57.9 72 9.4 49
21:55 1017 30.03 846 24.98 14.3 57.7 73 9.5 49.1
22:00 1017 30.03 846 24.98 14.4 57.8 73 9.6 49.3
22:05 1017 30.03 846 24.98 14.3 57.7 71 9.2 48.5
22:10 1017 30.03 846 24.98 14.3 57.8 70 8.9 48.1
22:15 1017 30.03 846 24.98 14.4 57.9 69 8.9 48.1
22:20 1017 30.03 846 24.98 14.4 57.9 70 9 48.1
22:25 1017 30.03 846 24.98 14.5 58 68 8.7 47.6
22:30 1017 30.03 846 24.98 14.6 58.2 68 8.8 47.9
22:35 1017 30.03 847 25.01 14.5 58.1 69 9 48.1
22:40 1017 30.03 847 25.01 14.3 57.7 70 8.9 48
22:45 1017 30.03 847 25.01 14.1 57.5 71 9 48.2
22:50 1018 30.06 847 25.01 14 57.1 72 9 48.1
22:55 1018 30.06 847 25.01 13.9 57 73 9.1 48.4
23:00 1018 30.06 847 25.01 13.8 56.8 73 9.1 48.4
23:05 1018 30.06 847 25.01 13.7 56.7 73 9 48.2
23:10 1018 30.06 847 25.01 13.7 56.7 72 8.9 48
23:15 1018 30.06 847 25.01 13.8 56.8 72 8.8 47.8
23:20 1017 30.03 847 25.01 13.8 56.9 71 8.8 47.8
23:25 1017 30.03 847 25.01 13.8 56.9 71 8.7 47.7
23:30 1017 30.03 846 24.98 13.8 56.8 70 8.6 47.4
23:35 1017 30.03 846 24.98 14 57.2 69 8.5 47.2
23:40 1017 30.03 846 24.98 14 57.3 69 8.5 47.3
23:45 1017 30.03 846 24.98 14 57.2 69 8.5 47.3
23:50 1017 30.03 846 24.98 13.8 56.9 70 8.5 47.4
23:55 1017 30.03 846 24.98 13.7 56.6 70 8.4 47.2
24:00 1017 30.03 846 24.98 13.7 56.6 70 8.4 47.1